createdAt,value
2023-11-27T00:02:26.948Z,24.23
2023-11-27T00:07:29.940Z,27.40
2023-11-27T00:12:33.039Z,26.20
2023-11-27T00:17:37.407Z,29.48
2023-11-27T00:22:40.605Z,26.92
2023-11-27T00:27:44.349Z,26.85
2023-11-27T00:32:48.939Z,24.98
2023-11-27T00:37:52.703Z,37.92
2023-11-27T00:42:55.688Z,39.50
2023-11-27T00:48:00.610Z,37.47
2023-11-27T00:53:03.587Z,20.05
2023-11-27T00:58:07.928Z,28.85
2023-11-27T01:03:12.794Z,31.10
2023-11-27T01:08:16.056Z,32.40
2023-11-27T01:13:19.138Z,31.02
2023-11-27T01:18:23.472Z,29.45
2023-11-27T01:23:26.423Z,27.88
2023-11-27T01:28:29.360Z,26.05
2023-11-27T01:33:34.715Z,23.08
2023-11-27T01:38:38.038Z,22.20
2023-11-27T01:43:42.029Z,14.57
2023-11-27T01:48:46.431Z,19.48
2023-11-27T01:53:51.216Z,19.90
2023-11-27T01:58:56.408Z,17.48
2023-11-27T02:04:01.313Z,15.50
2023-11-27T02:09:04.506Z,13.23
2023-11-27T02:14:07.442Z,14.52
2023-11-27T02:19:12.047Z,14.60
2023-11-27T02:24:16.745Z,14.45
2023-11-27T02:29:19.747Z,14.43
2023-11-27T02:34:22.746Z,14.95
2023-11-27T02:39:27.493Z,15.98
2023-11-27T02:44:30.417Z,15.98
2023-11-27T02:49:33.435Z,8.18
2023-11-27T02:54:37.734Z,16.75
2023-11-27T02:59:40.789Z,8.57
2023-11-27T03:04:43.744Z,13.02
2023-11-27T03:09:49.669Z,13.15
2023-11-27T03:14:52.708Z,15.20
2023-11-27T03:19:55.615Z,13.90
2023-11-27T03:25:00.399Z,10.80
2023-11-27T03:30:05.699Z,10.77
2023-11-27T03:35:10.877Z,12.50
2023-11-27T03:40:15.533Z,11.82
2023-11-27T03:45:18.517Z,11.43
2023-11-27T03:50:21.442Z,12.45
2023-11-27T03:55:26.763Z,10.68
2023-11-27T04:00:29.818Z,10.70
2023-11-27T04:05:32.742Z,10.05
2023-11-27T04:10:37.426Z,8.45
2023-11-27T04:15:40.885Z,9.90
2023-11-27T04:20:44.996Z,9.82
2023-11-27T04:25:49.388Z,9.82
2023-11-27T04:30:52.324Z,10.48
2023-11-27T04:35:55.512Z,8.45
2023-11-27T04:40:59.773Z,7.85
2023-11-27T04:46:02.909Z,10.15
2023-11-27T04:51:06.453Z,12.07
2023-11-27T04:56:11.860Z,7.10
2023-11-27T05:01:14.806Z,11.63
2023-11-27T05:06:17.756Z,10.77
2023-11-27T05:11:22.420Z,7.82
2023-11-27T05:16:25.391Z,9.73
2023-11-27T05:21:28.571Z,8.70
2023-11-27T05:26:32.877Z,7.47
2023-11-27T05:31:36.005Z,9.93
2023-11-27T05:36:39.046Z,8.02
2023-11-27T05:41:43.847Z,9.73
2023-11-27T05:46:46.881Z,7.85
2023-11-27T05:51:50.039Z,10.07
2023-11-27T05:56:55.557Z,11.65
2023-11-27T06:01:59.239Z,11.55
2023-11-27T06:07:02.330Z,10.73
2023-11-27T06:12:07.340Z,11.20
2023-11-27T06:17:10.400Z,13.20
2023-11-27T06:22:13.684Z,13.10
2023-11-27T06:27:18.068Z,12.07
2023-11-27T06:32:22.555Z,13.43
2023-11-27T06:37:25.790Z,12.65
2023-11-27T06:42:31.336Z,11.95
2023-11-27T06:47:34.327Z,12.75
2023-11-27T06:52:37.514Z,13.32
2023-11-27T06:57:42.738Z,13.85
2023-11-27T07:02:46.267Z,14.05
2023-11-27T07:07:49.272Z,13.95
2023-11-27T07:12:53.820Z,14.15
2023-11-27T07:18:09.484Z,4.20
2023-11-27T07:23:19.601Z,20.65
2023-11-27T07:28:24.374Z,22.25
2023-11-27T07:33:27.626Z,15.80
2023-11-27T07:38:30.533Z,9.38
2023-11-27T07:43:35.604Z,8.75
2023-11-27T07:48:39.404Z,7.90
2023-11-27T07:53:42.600Z,7.15
2023-11-27T07:58:46.948Z,8.70
2023-11-27T08:03:50.111Z,8.65
2023-11-27T08:08:55.180Z,8.68
2023-11-27T08:13:59.597Z,9.88
2023-11-27T08:19:02.570Z,9.68
2023-11-27T08:24:07.240Z,10.88
2023-11-27T08:29:16.335Z,12.15
2023-11-27T08:34:20.931Z,10.23
2023-11-27T08:39:25.555Z,10.52
2023-11-27T08:44:30.320Z,10.93
2023-11-27T08:49:33.376Z,10.90
2023-11-27T08:54:36.490Z,10.30
2023-11-27T08:59:40.974Z,10.77
2023-11-27T09:04:44.032Z,10.45
2023-11-27T09:09:46.976Z,10.68
2023-11-27T09:14:52.442Z,12.48
2023-11-27T09:19:56.509Z,11.57
2023-11-27T09:24:59.545Z,12.65
2023-11-27T09:30:04.260Z,13.98
2023-11-27T09:35:09.916Z,12.25
2023-11-27T09:40:14.870Z,13.73
2023-11-27T09:45:20.117Z,14.00
2023-11-27T09:50:23.838Z,11.82
2023-11-27T09:55:28.495Z,11.85
2023-11-27T10:00:35.135Z,10.70
2023-11-27T10:05:39.154Z,8.63
2023-11-27T10:10:45.416Z,7.75
2023-11-27T10:15:50.790Z,5.68
2023-11-27T10:20:53.898Z,6.05
2023-11-27T10:26:00.320Z,7.05
2023-11-27T10:31:05.341Z,6.18
2023-11-27T10:36:10.853Z,5.72
2023-11-27T10:41:15.516Z,6.10
2023-11-27T10:46:20.760Z,6.70
2023-11-27T10:51:24.515Z,7.25
2023-11-27T10:56:31.859Z,6.93
2023-11-27T11:01:40.426Z,7.72
2023-11-27T11:06:47.393Z,7.88
2023-11-27T11:11:51.290Z,9.15
2023-11-27T11:17:09.199Z,10.30
2023-11-27T11:22:24.994Z,11.68
2023-11-27T11:27:36.803Z,11.30
2023-11-27T11:32:41.471Z,11.90
2023-11-27T11:37:50.329Z,12.35
2023-11-27T11:42:53.596Z,11.07
2023-11-27T11:48:01.189Z,9.23
2023-11-27T11:53:27.636Z,10.98
2023-11-27T11:58:31.143Z,10.93
2023-11-27T12:03:37.224Z,10.55
2023-11-27T12:08:46.004Z,10.40
2023-11-27T12:13:48.998Z,11.38
2023-11-27T12:18:55.813Z,9.88
2023-11-27T12:23:59.311Z,10.18
2023-11-27T12:29:02.644Z,10.38
2023-11-27T12:34:07.013Z,11.30
2023-11-27T12:39:12.312Z,11.32
2023-11-27T12:44:17.508Z,12.40
2023-11-27T12:49:23.700Z,12.10
2023-11-27T12:54:32.722Z,10.98
2023-11-27T12:59:40.980Z,10.60
2023-11-27T13:04:45.501Z,12.43
2023-11-27T13:09:48.439Z,13.13
2023-11-27T13:14:51.483Z,13.68
2023-11-27T13:19:57.115Z,11.30
2023-11-27T13:25:00.700Z,12.65
2023-11-27T13:30:03.955Z,12.45
2023-11-27T13:35:09.261Z,18.13
2023-11-27T13:40:13.634Z,12.43
2023-11-27T13:45:17.596Z,11.52
2023-11-27T13:50:22.168Z,12.82
2023-11-27T13:55:25.194Z,12.35
2023-11-27T14:00:28.962Z,12.63
2023-11-27T14:05:38.600Z,13.52
2023-11-27T14:16:14.757Z,13.15
2023-11-27T14:21:47.103Z,14.30
2023-11-27T14:27:21.367Z,13.70
2023-11-27T14:32:25.837Z,14.70
2023-11-27T14:37:31.605Z,13.38
2023-11-27T14:42:34.724Z,12.85
2023-11-27T14:47:39.271Z,11.50
2023-11-27T14:52:44.458Z,12.38
2023-11-27T14:57:49.189Z,12.98
2023-11-27T15:02:56.342Z,11.30
2023-11-27T15:08:00.846Z,11.68
2023-11-27T15:13:03.958Z,12.00
2023-11-27T15:18:08.500Z,11.60
2023-11-27T15:23:11.798Z,11.02
2023-11-27T15:28:15.967Z,11.32
2023-11-27T15:33:20.423Z,11.48
2023-11-27T15:38:25.925Z,10.48
2023-11-27T15:43:29.387Z,10.77
2023-11-27T15:48:33.857Z,12.80
2023-11-27T15:53:36.845Z,11.15
2023-11-27T15:58:40.255Z,10.70
2023-11-27T16:03:44.653Z,11.10
2023-11-27T16:08:47.810Z,9.40
2023-11-27T16:13:54.683Z,9.70
2023-11-27T16:19:02.541Z,9.20
2023-11-27T16:24:09.862Z,9.07
2023-11-27T16:29:12.913Z,8.95
2023-11-27T16:34:17.338Z,8.88
2023-11-27T16:39:21.645Z,7.68
2023-11-27T16:44:24.556Z,8.35
2023-11-27T16:49:28.872Z,9.13
2023-11-27T16:54:33.775Z,8.73
2023-11-27T16:59:36.713Z,9.38
2023-11-27T17:04:41.113Z,9.48
2023-11-27T17:09:44.144Z,9.07
2023-11-27T17:14:47.500Z,9.90
2023-11-27T17:19:51.969Z,11.02
2023-11-27T17:24:54.974Z,12.07
2023-11-27T17:29:57.948Z,9.20
2023-11-27T17:35:09.648Z,7.90
2023-11-27T17:40:14.306Z,8.35
2023-11-27T17:45:18.037Z,8.52
2023-11-27T17:50:24.162Z,8.90
2023-11-27T17:55:34.057Z,10.20
2023-11-27T18:00:43.247Z,10.13
2023-11-27T18:05:47.560Z,8.25
2023-11-27T18:10:51.078Z,8.85
2023-11-27T18:15:54.027Z,7.85
2023-11-27T18:20:58.369Z,8.50
2023-11-27T18:26:05.240Z,8.13
2023-11-27T18:31:09.355Z,7.72
2023-11-27T18:36:14.445Z,7.70
2023-11-27T18:41:18.893Z,8.13
2023-11-27T18:46:23.457Z,7.85
2023-11-27T18:51:27.723Z,7.93
2023-11-27T18:56:30.740Z,8.80
2023-11-27T19:01:33.829Z,10.57
2023-11-27T19:06:38.952Z,8.57
2023-11-27T19:11:41.836Z,8.80
2023-11-27T19:16:45.913Z,9.10
2023-11-27T19:21:51.753Z,8.23
2023-11-27T19:26:54.727Z,7.82
2023-11-27T19:31:57.769Z,9.93
2023-11-27T19:37:04.840Z,10.27
2023-11-27T19:42:09.865Z,8.82
2023-11-27T19:47:14.782Z,7.97
2023-11-27T19:52:19.272Z,8.82
2023-11-27T19:57:22.190Z,9.95
2023-11-27T20:02:26.172Z,8.18
2023-11-27T20:07:30.611Z,8.35
2023-11-27T20:12:33.574Z,9.27
2023-11-27T20:17:36.584Z,7.07
2023-11-27T20:22:41.491Z,8.13
2023-11-27T20:27:45.447Z,7.20
2023-11-27T20:32:48.521Z,5.95
2023-11-27T20:37:55.353Z,7.05
2023-11-27T20:43:00.241Z,6.22
2023-11-27T20:48:04.234Z,6.35
2023-11-27T20:53:09.065Z,6.82
2023-11-27T20:58:14.006Z,7.60
2023-11-27T21:03:20.197Z,6.00
2023-11-27T21:08:25.348Z,5.88
2023-11-27T21:13:28.527Z,4.97
2023-11-27T21:18:31.869Z,5.78
2023-11-27T21:23:36.285Z,6.85
2023-11-27T21:28:42.596Z,7.85
2023-11-27T21:33:46.278Z,7.68
2023-11-27T21:38:51.768Z,7.82
2023-11-27T21:43:54.913Z,8.13
2023-11-27T21:48:58.043Z,7.80
2023-11-27T21:54:02.463Z,7.32
2023-11-27T21:59:05.844Z,6.72
2023-11-27T22:04:09.129Z,6.03
2023-11-27T22:09:13.648Z,5.60
2023-11-27T22:14:16.623Z,5.80
2023-11-27T22:19:19.530Z,5.97
2023-11-27T22:24:23.957Z,4.68
2023-11-27T22:29:28.939Z,5.07
2023-11-27T22:34:33.079Z,4.28
2023-11-27T22:39:37.458Z,4.43
2023-11-27T22:44:40.495Z,4.28
2023-11-27T22:49:43.462Z,4.13
2023-11-27T22:54:47.947Z,3.70
2023-11-27T22:59:50.912Z,3.78
2023-11-27T23:04:53.963Z,4.63
2023-11-27T23:09:59.083Z,3.92
2023-11-27T23:15:02.065Z,3.90
2023-11-27T23:20:06.142Z,3.88
2023-11-27T23:25:10.744Z,5.55
2023-11-27T23:30:14.527Z,4.72
2023-11-27T23:35:18.219Z,5.82
2023-11-27T23:40:22.874Z,6.72
2023-11-27T23:45:26.663Z,6.55
2023-11-27T23:50:29.586Z,6.20
2023-11-27T23:55:33.973Z,8.18
